createdAt,value
2022-09-07T00:00:29.421Z,80.63
2022-09-07T00:01:29.433Z,81.74
2022-09-07T00:02:29.437Z,83.04
2022-09-07T00:03:29.448Z,82.45
2022-09-07T00:04:29.517Z,81.70
2022-09-07T00:05:29.386Z,81.50
2022-09-07T00:06:29.415Z,81.90
2022-09-07T00:07:29.362Z,80.70
2022-09-07T00:08:29.509Z,80.90
2022-09-07T00:09:29.329Z,81.94
2022-09-07T00:10:29.331Z,81.60
2022-09-07T00:11:29.320Z,81.20
2022-09-07T00:12:29.300Z,81.60
2022-09-07T00:13:29.305Z,81.60
2022-09-07T00:14:29.299Z,81.80
2022-09-07T00:15:29.289Z,81.90
2022-09-07T00:16:29.343Z,82.20
2022-09-07T00:17:29.247Z,81.40
2022-09-07T00:18:29.239Z,82.10
2022-09-07T00:19:29.251Z,81.80
2022-09-07T00:20:29.213Z,81.80
2022-09-07T00:21:29.203Z,81.90
2022-09-07T00:22:29.202Z,82.51
2022-09-07T00:23:29.184Z,82.60
2022-09-07T00:24:29.215Z,82.70
2022-09-07T00:25:31.884Z,82.17
2022-09-07T00:26:29.168Z,81.76
2022-09-07T00:27:29.155Z,81.56
2022-09-07T00:28:29.210Z,82.06
2022-09-07T00:29:29.133Z,81.96
2022-09-07T00:30:29.112Z,82.46
2022-09-07T00:31:29.156Z,82.40
2022-09-07T00:32:29.107Z,82.40
2022-09-07T00:33:29.087Z,82.31
2022-09-07T00:34:29.091Z,82.20
2022-09-07T00:35:29.057Z,81.87
2022-09-07T00:36:29.077Z,81.40
2022-09-07T00:37:29.074Z,81.70
2022-09-07T00:38:29.073Z,82.64
2022-09-07T00:39:29.049Z,83.69
2022-09-07T00:40:29.021Z,84.49
2022-09-07T00:41:28.987Z,84.59
2022-09-07T00:42:28.990Z,84.09
2022-09-07T00:43:29.013Z,85.60
2022-09-07T00:44:28.963Z,85.60
2022-09-07T00:45:28.968Z,85.30
2022-09-07T00:46:29.018Z,84.80
2022-09-07T00:47:28.930Z,84.49
2022-09-07T00:48:28.930Z,85.19
2022-09-07T00:49:28.922Z,87.10
2022-09-07T00:50:28.927Z,87.81
2022-09-07T00:51:28.908Z,89.42
2022-09-07T00:52:28.916Z,88.31
2022-09-07T00:53:28.869Z,89.31
2022-09-07T00:54:28.867Z,87.91
2022-09-07T00:55:28.972Z,88.41
2022-09-07T00:56:28.919Z,89.11
2022-09-07T00:57:28.846Z,89.72
2022-09-07T00:58:28.916Z,89.66
2022-09-07T00:59:28.858Z,88.95
2022-09-07T01:00:28.819Z,87.95
2022-09-07T01:01:28.890Z,88.35
2022-09-07T01:02:28.877Z,89.56
2022-09-07T01:03:28.796Z,91.27
2022-09-07T01:04:28.888Z,91.61
2022-09-07T01:05:28.777Z,91.61
2022-09-07T01:06:28.773Z,91.11
2022-09-07T01:07:28.747Z,91.41
2022-09-07T01:08:28.788Z,91.41
2022-09-07T01:09:28.717Z,92.02
2022-09-07T01:10:28.699Z,92.82
2022-09-07T01:11:28.699Z,93.12
2022-09-07T01:12:28.714Z,91.51
2022-09-07T01:13:28.688Z,92.52
2022-09-07T01:14:28.663Z,92.11
2022-09-07T01:15:28.651Z,91.61
2022-09-07T01:16:28.737Z,91.91
2022-09-07T01:17:28.641Z,91.71
2022-09-07T01:18:28.693Z,92.82
2022-09-07T01:19:28.611Z,93.52
2022-09-07T01:20:28.599Z,93.32
2022-09-07T01:21:28.613Z,93.62
2022-09-07T01:22:28.576Z,92.92
2022-09-07T01:23:28.616Z,91.71
2022-09-07T01:24:28.585Z,91.41
2022-09-07T01:25:28.573Z,90.41
2022-09-07T01:26:28.578Z,90.11
2022-09-07T01:27:28.538Z,89.70
2022-09-07T01:28:28.609Z,88.19
2022-09-07T01:29:28.506Z,87.79
2022-09-07T01:30:28.561Z,88.09
2022-09-07T01:31:28.529Z,88.19
2022-09-07T01:32:28.505Z,87.69
2022-09-07T01:33:28.491Z,87.69
2022-09-07T01:34:28.487Z,87.39
2022-09-07T01:35:28.455Z,88.59
2022-09-07T01:36:28.442Z,87.08
2022-09-07T01:37:28.448Z,89.60
2022-09-07T01:38:28.477Z,90.11
2022-09-07T01:39:28.489Z,90.26
2022-09-07T01:40:28.416Z,90.36
2022-09-07T01:41:28.428Z,89.66
2022-09-07T01:42:28.407Z,89.86
2022-09-07T01:43:28.388Z,88.51
2022-09-07T01:44:28.378Z,88.71
2022-09-07T01:45:28.354Z,87.41
2022-09-07T01:46:28.380Z,88.01
2022-09-07T01:47:28.375Z,88.31
2022-09-07T01:48:28.359Z,88.71
2022-09-07T01:49:28.318Z,88.61
2022-09-07T01:50:28.305Z,88.61
2022-09-07T01:51:28.288Z,89.06
2022-09-07T01:52:28.286Z,90.16
2022-09-07T01:53:28.312Z,90.02
2022-09-07T01:54:28.272Z,89.11
2022-09-07T01:55:28.344Z,89.62
2022-09-07T01:56:28.254Z,89.46
2022-09-07T01:57:28.234Z,89.36
2022-09-07T01:58:28.247Z,89.36
2022-09-07T01:59:28.275Z,89.86
2022-09-07T02:00:28.217Z,90.66
2022-09-07T02:01:28.285Z,90.66
2022-09-07T02:02:28.227Z,90.77
2022-09-07T02:03:28.220Z,89.26
2022-09-07T02:04:28.186Z,88.75
2022-09-07T02:05:28.181Z,89.46
2022-09-07T02:06:28.152Z,89.56
2022-09-07T02:07:28.155Z,90.16
2022-09-07T02:08:28.151Z,90.16
2022-09-07T02:09:28.124Z,91.06
2022-09-07T02:10:28.103Z,91.77
2022-09-07T02:11:28.084Z,91.97
2022-09-07T02:12:28.089Z,91.97
2022-09-07T02:13:28.066Z,91.87
2022-09-07T02:14:28.099Z,91.97
2022-09-07T02:15:28.162Z,90.26
2022-09-07T02:16:28.097Z,89.66
2022-09-07T02:17:28.064Z,89.15
2022-09-07T02:18:28.080Z,89.36
2022-09-07T02:19:28.008Z,89.36
2022-09-07T02:20:28.009Z,90.26
2022-09-07T02:21:27.998Z,89.06
2022-09-07T02:22:27.993Z,89.56
2022-09-07T02:23:28.003Z,88.45
2022-09-07T02:24:27.977Z,88.65
2022-09-07T02:25:27.986Z,88.85
2022-09-07T02:26:27.966Z,88.75
2022-09-07T02:27:27.953Z,89.26
2022-09-07T02:28:27.944Z,88.65
2022-09-07T02:29:30.851Z,88.45
2022-09-07T02:30:27.935Z,89.66
2022-09-07T02:31:27.961Z,89.06
2022-09-07T02:32:27.903Z,88.85
2022-09-07T02:33:27.884Z,88.55
2022-09-07T02:34:27.896Z,89.06
2022-09-07T02:35:27.894Z,89.96
2022-09-07T02:36:27.845Z,88.75
2022-09-07T02:37:27.831Z,89.96
2022-09-07T02:38:27.832Z,88.65
2022-09-07T02:39:27.881Z,89.56
2022-09-07T02:40:27.841Z,90.16
2022-09-07T02:41:27.806Z,90.12
2022-09-07T02:42:27.893Z,89.56
2022-09-07T02:43:27.798Z,89.06
2022-09-07T02:44:27.786Z,89.86
2022-09-07T02:45:27.791Z,89.90
2022-09-07T02:46:27.823Z,90.81
2022-09-07T02:47:27.770Z,90.20
2022-09-07T02:48:27.740Z,90.11
2022-09-07T02:49:27.729Z,90.30
2022-09-07T02:50:27.731Z,91.71
2022-09-07T02:51:27.690Z,91.35
2022-09-07T02:52:27.693Z,91.05
2022-09-07T02:53:27.718Z,91.15
2022-09-07T02:54:27.696Z,91.46
2022-09-07T02:55:27.714Z,90.95
2022-09-07T02:56:27.674Z,90.65
2022-09-07T02:57:27.644Z,91.35
2022-09-07T02:58:27.693Z,91.96
2022-09-07T02:59:27.610Z,91.96
2022-09-07T03:00:27.651Z,92.41
2022-09-07T03:01:27.698Z,92.02
2022-09-07T03:02:27.691Z,91.41
2022-09-07T03:03:27.591Z,91.47
2022-09-07T03:04:27.567Z,91.67
2022-09-07T03:05:27.549Z,90.77
2022-09-07T03:06:27.561Z,90.16
2022-09-07T03:07:27.533Z,89.36
2022-09-07T03:08:27.525Z,88.75
2022-09-07T03:09:27.522Z,90.36
2022-09-07T03:10:27.525Z,90.56
2022-09-07T03:11:27.518Z,89.56
2022-09-07T03:12:27.484Z,90.06
2022-09-07T03:13:27.485Z,91.27
2022-09-07T03:14:27.470Z,91.41
2022-09-07T03:15:27.538Z,90.11
2022-09-07T03:16:27.479Z,91.01
2022-09-07T03:17:27.435Z,91.01
2022-09-07T03:18:27.518Z,90.81
2022-09-07T03:19:27.452Z,90.61
2022-09-07T03:20:27.456Z,91.21
2022-09-07T03:21:27.434Z,91.21
2022-09-07T03:22:27.392Z,91.51
2022-09-07T03:23:27.400Z,90.50
2022-09-07T03:24:27.387Z,90.61
2022-09-07T03:25:27.355Z,90.30
2022-09-07T03:26:27.352Z,90.70
2022-09-07T03:27:27.360Z,91.71
2022-09-07T03:28:27.372Z,91.41
2022-09-07T03:29:27.310Z,90.91
2022-09-07T03:30:27.339Z,91.31
2022-09-07T03:31:27.304Z,90.41
2022-09-07T03:32:27.350Z,90.77
2022-09-07T03:33:27.294Z,90.56
2022-09-07T03:34:27.305Z,90.46
2022-09-07T03:35:27.250Z,91.06
2022-09-07T03:36:27.272Z,90.06
2022-09-07T03:37:27.261Z,90.86
2022-09-07T03:38:27.290Z,90.86
2022-09-07T03:39:27.295Z,90.06
2022-09-07T03:40:27.217Z,90.16
2022-09-07T03:41:27.197Z,90.16
2022-09-07T03:42:27.183Z,89.86
2022-09-07T03:43:27.181Z,89.15
2022-09-07T03:44:27.188Z,89.60
2022-09-07T03:45:27.197Z,90.50
2022-09-07T03:46:27.241Z,90.56
2022-09-07T03:47:27.142Z,90.86
2022-09-07T03:48:27.170Z,90.26
2022-09-07T03:49:27.122Z,90.46
2022-09-07T03:50:27.169Z,90.36
2022-09-07T03:51:27.097Z,89.96
2022-09-07T03:52:27.113Z,90.00
2022-09-07T03:53:27.085Z,90.30
2022-09-07T03:54:27.109Z,90.20
2022-09-07T03:55:27.060Z,90.41
2022-09-07T03:56:27.077Z,89.80
2022-09-07T03:57:27.043Z,89.60
2022-09-07T03:58:27.077Z,89.30
2022-09-07T03:59:27.041Z,89.40
2022-09-07T04:00:27.004Z,89.70
2022-09-07T04:01:27.087Z,89.95
2022-09-07T04:02:27.053Z,90.65
2022-09-07T04:03:27.043Z,91.05
2022-09-07T04:04:26.997Z,90.50
2022-09-07T04:05:26.961Z,90.41
2022-09-07T04:06:26.971Z,90.65
2022-09-07T04:07:26.948Z,91.25
2022-09-07T04:08:26.992Z,91.86
2022-09-07T04:09:26.936Z,91.96
2022-09-07T04:10:26.915Z,91.66
2022-09-07T04:11:26.905Z,91.25
2022-09-07T04:12:26.928Z,91.05
2022-09-07T04:13:26.875Z,91.55
2022-09-07T04:14:26.885Z,91.86
2022-09-07T04:15:26.874Z,91.96
2022-09-07T04:16:26.858Z,91.11
2022-09-07T04:17:26.850Z,90.55
2022-09-07T04:18:26.950Z,90.85
2022-09-07T04:19:26.855Z,91.15
2022-09-07T04:20:26.833Z,91.46
2022-09-07T04:21:26.743Z,91.75
2022-09-07T04:22:26.820Z,91.75
2022-09-07T04:23:26.786Z,91.66
2022-09-07T04:24:26.786Z,91.86
2022-09-07T04:25:26.771Z,91.75
2022-09-07T04:26:26.754Z,91.35
2022-09-07T04:27:26.709Z,90.55
2022-09-07T04:28:26.832Z,90.75
2022-09-07T04:29:26.681Z,91.86
2022-09-07T04:30:26.653Z,91.46
2022-09-07T04:31:26.766Z,91.01
2022-09-07T04:32:26.715Z,91.11
2022-09-07T04:33:26.709Z,91.05
2022-09-07T04:34:26.634Z,90.91
2022-09-07T04:35:26.657Z,91.11
2022-09-07T04:36:26.677Z,91.31
2022-09-07T04:37:26.675Z,91.01
2022-09-07T04:38:26.671Z,91.11
2022-09-07T04:39:26.621Z,91.21
2022-09-07T04:40:26.551Z,91.41
2022-09-07T04:41:26.553Z,91.01
2022-09-07T04:42:26.530Z,91.01
2022-09-07T04:43:26.585Z,90.11
2022-09-07T04:44:26.518Z,90.61
2022-09-07T04:45:26.516Z,91.21
2022-09-07T04:46:26.604Z,91.11
2022-09-07T04:47:26.490Z,90.70
2022-09-07T04:48:26.532Z,90.15
2022-09-07T04:49:26.474Z,90.25
2022-09-07T04:50:26.473Z,90.75
2022-09-07T04:51:26.447Z,91.25
2022-09-07T04:52:26.454Z,90.75
2022-09-07T04:53:26.434Z,91.55
2022-09-07T04:54:26.439Z,91.75
2022-09-07T04:55:26.419Z,91.35
2022-09-07T04:56:26.421Z,91.55
2022-09-07T04:57:26.435Z,91.15
2022-09-07T04:58:26.441Z,91.66
2022-09-07T04:59:26.368Z,91.35
2022-09-07T05:00:26.397Z,91.51
2022-09-07T05:01:26.443Z,91.41
2022-09-07T05:02:26.437Z,91.31
2022-09-07T05:03:26.438Z,91.51
2022-09-07T05:04:26.367Z,90.91
2022-09-07T05:05:26.306Z,91.11
2022-09-07T05:06:26.308Z,91.41
2022-09-07T05:07:26.290Z,91.31
2022-09-07T05:08:26.432Z,91.61
2022-09-07T05:09:26.286Z,91.31
2022-09-07T05:10:26.253Z,91.41
2022-09-07T05:11:29.151Z,91.21
2022-09-07T05:12:26.264Z,91.41
2022-09-07T05:13:26.265Z,90.91
2022-09-07T05:14:26.245Z,90.41
2022-09-07T05:15:26.216Z,90.30
2022-09-07T05:16:26.251Z,90.30
2022-09-07T05:17:26.201Z,90.20
2022-09-07T05:18:26.169Z,90.41
2022-09-07T05:19:26.185Z,90.61
2022-09-07T05:20:26.160Z,90.91
2022-09-07T05:21:26.147Z,91.01
2022-09-07T05:22:26.186Z,91.31
2022-09-07T05:23:26.138Z,91.51
2022-09-07T05:24:26.143Z,91.71
2022-09-07T05:25:26.126Z,91.55
2022-09-07T05:26:26.130Z,91.75
2022-09-07T05:27:26.097Z,91.61
2022-09-07T05:28:26.117Z,91.21
2022-09-07T05:31:26.051Z,91.51
2022-09-07T05:32:26.043Z,91.21
2022-09-07T05:34:31.558Z,91.71
2022-09-07T05:35:26.033Z,91.82
2022-09-07T05:36:26.015Z,91.61
2022-09-07T05:37:26.017Z,91.61
2022-09-07T05:38:26.012Z,91.41
2022-09-07T05:39:26.031Z,90.86
2022-09-07T05:40:25.955Z,90.86
2022-09-07T05:41:25.974Z,90.66
2022-09-07T05:42:25.957Z,90.36
2022-09-07T05:43:25.981Z,89.96
2022-09-07T05:45:25.925Z,89.86
2022-09-07T05:46:25.934Z,90.16
2022-09-07T05:47:25.945Z,89.56
2022-09-07T05:48:25.926Z,89.11
2022-09-07T05:49:25.873Z,88.71
2022-09-07T05:50:25.918Z,88.81
2022-09-07T05:51:25.879Z,88.71
2022-09-07T05:52:25.907Z,88.21
2022-09-07T05:53:25.834Z,88.41
2022-09-07T05:54:25.826Z,87.91
2022-09-07T05:55:30.452Z,88.21
2022-09-07T05:56:25.833Z,88.81
2022-09-07T05:57:25.808Z,88.91
2022-09-07T05:58:25.782Z,88.41
2022-09-07T05:59:25.769Z,88.21
2022-09-07T06:00:25.761Z,87.71
2022-09-07T06:01:25.750Z,87.30
2022-09-07T06:02:25.889Z,87.10
2022-09-07T06:03:25.773Z,87.26
2022-09-07T06:04:25.782Z,87.26
2022-09-07T06:05:25.735Z,86.76
2022-09-07T06:06:25.721Z,86.16
2022-09-07T06:07:25.697Z,86.10
2022-09-07T06:08:25.734Z,86.40
2022-09-07T06:09:30.307Z,87.30
2022-09-07T06:11:25.690Z,87.71
2022-09-07T06:12:25.672Z,87.81
2022-09-07T06:13:25.694Z,86.96
2022-09-07T06:14:25.653Z,86.26
2022-09-07T06:15:25.650Z,86.26
2022-09-07T06:16:25.672Z,86.06
2022-09-07T06:17:25.604Z,86.06
2022-09-07T06:18:25.601Z,86.26
2022-09-07T06:19:25.605Z,86.32
2022-09-07T06:20:25.595Z,86.62
2022-09-07T06:21:25.564Z,86.02
2022-09-07T06:22:30.118Z,85.61
2022-09-07T06:23:25.613Z,85.11
2022-09-07T06:24:25.514Z,85.41
2022-09-07T06:25:25.554Z,85.31
2022-09-07T06:26:25.516Z,84.91
2022-09-07T06:27:25.522Z,84.81
2022-09-07T06:28:25.478Z,84.07
2022-09-07T06:29:25.460Z,81.79
2022-09-07T06:30:25.486Z,79.86
2022-09-07T06:31:25.487Z,78.23
2022-09-07T06:33:25.452Z,76.93
2022-09-07T06:34:25.407Z,76.83
2022-09-07T06:35:25.419Z,77.93
2022-09-07T06:36:25.412Z,78.06
2022-09-07T06:37:25.375Z,79.00
2022-09-07T06:38:27.762Z,79.85
2022-09-07T06:39:25.507Z,80.54
2022-09-07T06:40:25.378Z,80.94
2022-09-07T06:42:25.322Z,81.88
2022-09-07T06:43:25.382Z,81.38
2022-09-07T06:44:25.394Z,82.09
2022-09-07T06:45:25.358Z,81.99
2022-09-07T06:47:25.324Z,80.94
2022-09-07T06:48:25.281Z,79.64
2022-09-07T06:49:25.272Z,80.11
2022-09-07T06:50:25.298Z,79.94
2022-09-07T06:51:25.266Z,80.15
2022-09-07T06:52:25.432Z,79.64
2022-09-07T06:53:43.090Z,79.74
2022-09-07T06:55:25.207Z,77.93
2022-09-07T06:56:25.188Z,76.06
2022-09-07T06:57:25.193Z,76.09
2022-09-07T06:58:25.186Z,77.53
2022-09-07T06:59:25.187Z,78.53
2022-09-07T07:00:25.634Z,77.13
2022-09-07T07:01:25.240Z,75.76
2022-09-07T07:02:25.105Z,76.69
2022-09-07T07:03:25.234Z,76.63
2022-09-07T07:04:25.294Z,77.09
2022-09-07T07:05:25.144Z,76.93
2022-09-07T07:06:25.109Z,77.86
2022-09-07T07:07:25.074Z,78.36
2022-09-07T07:08:25.073Z,79.27
2022-09-07T07:09:25.090Z,79.50
2022-09-07T07:10:25.302Z,80.21
2022-09-07T07:11:25.022Z,81.11
2022-09-07T07:12:57.808Z,80.74
2022-09-07T07:13:57.889Z,81.04
2022-09-07T07:14:57.878Z,81.15
2022-09-07T07:15:57.942Z,80.94
2022-09-07T07:16:57.855Z,80.51
2022-09-07T07:18:05.130Z,79.80
2022-09-07T07:18:57.885Z,80.21
2022-09-07T07:20:03.295Z,78.97
2022-09-07T07:21:02.964Z,78.43
2022-09-07T07:22:57.847Z,76.83
2022-09-07T07:23:57.817Z,77.79
2022-09-07T07:24:57.856Z,77.89
2022-09-07T07:25:58.784Z,77.69
2022-09-07T07:26:57.799Z,77.79
2022-09-07T07:29:03.392Z,78.73
2022-09-07T07:29:57.741Z,78.83
2022-09-07T07:30:57.742Z,79.03
2022-09-07T07:31:57.726Z,79.03
2022-09-07T07:32:57.761Z,79.09
2022-09-07T07:33:57.826Z,78.79
2022-09-07T07:34:57.680Z,78.59
2022-09-07T07:35:57.656Z,78.79
2022-09-07T07:36:57.657Z,78.79
2022-09-07T07:42:00.305Z,79.19
2022-09-07T07:42:57.600Z,78.89
2022-09-07T07:43:57.582Z,78.75
2022-09-07T07:45:59.198Z,78.59
2022-09-07T07:46:57.616Z,78.45
2022-09-07T07:47:57.550Z,78.85
2022-09-07T07:48:57.541Z,78.89
2022-09-07T07:50:57.519Z,80.33
2022-09-07T07:53:57.763Z,80.23
2022-09-07T07:54:57.469Z,80.19
2022-09-07T07:55:57.481Z,80.83
2022-09-07T07:56:57.449Z,80.63
2022-09-07T07:57:57.463Z,80.93
2022-09-07T07:58:57.421Z,80.43
2022-09-07T07:59:57.438Z,80.83
2022-09-07T08:00:57.753Z,79.93
2022-09-07T08:01:57.562Z,79.53
2022-09-07T08:02:57.437Z,78.93
2022-09-07T08:03:57.444Z,79.03
2022-09-07T08:04:57.433Z,79.43
2022-09-07T08:05:57.484Z,79.36
2022-09-07T08:06:57.354Z,79.86
2022-09-07T08:07:57.387Z,80.57
2022-09-07T08:08:57.348Z,80.30
2022-09-07T08:09:57.310Z,81.11
2022-09-07T08:10:57.304Z,81.30
2022-09-07T08:11:57.338Z,80.80
2022-09-07T08:12:57.273Z,81.21
2022-09-07T08:13:57.355Z,81.17
2022-09-07T08:14:57.257Z,81.27
2022-09-07T08:15:57.325Z,81.07
2022-09-07T08:16:57.249Z,80.33
2022-09-07T08:17:57.299Z,80.03
2022-09-07T08:18:57.237Z,79.73
2022-09-07T08:19:57.270Z,79.19
2022-09-07T08:20:57.275Z,79.09
2022-09-07T08:21:57.330Z,79.25
2022-09-07T08:22:57.232Z,78.66
2022-09-07T08:23:57.219Z,78.31
2022-09-07T08:24:57.191Z,77.62
2022-09-07T08:25:57.162Z,77.62
2022-09-07T08:26:57.173Z,78.18
2022-09-07T08:27:57.152Z,76.28
2022-09-07T08:28:57.143Z,77.34
2022-09-07T08:29:57.149Z,76.25
2022-09-07T08:30:57.100Z,76.25
2022-09-07T08:31:57.144Z,76.25
2022-09-07T08:32:57.116Z,75.74
2022-09-07T08:33:57.076Z,75.05
2022-09-07T08:34:57.070Z,74.81
2022-09-07T08:35:57.129Z,75.01
2022-09-07T08:36:57.031Z,74.71
2022-09-07T08:37:57.035Z,74.02
2022-09-07T08:38:57.017Z,73.58
2022-09-07T08:39:57.071Z,73.98
2022-09-07T08:40:57.014Z,74.08
2022-09-07T08:41:56.987Z,74.32
2022-09-07T08:42:57.004Z,75.15
2022-09-07T08:43:56.973Z,75.35
2022-09-07T08:44:56.973Z,76.04
2022-09-07T08:45:56.993Z,75.95
2022-09-07T08:46:57.049Z,76.65
2022-09-07T08:47:56.950Z,76.04
2022-09-07T08:48:56.945Z,76.95
2022-09-07T08:49:56.909Z,76.45
2022-09-07T08:50:56.937Z,75.35
2022-09-07T08:51:56.937Z,75.74
2022-09-07T08:52:56.910Z,75.45
2022-09-07T08:53:56.891Z,75.65
2022-09-07T08:54:56.908Z,76.04
2022-09-07T08:55:56.844Z,75.74
2022-09-07T08:57:56.852Z,75.41
2022-09-07T08:58:56.811Z,74.91
2022-09-07T08:59:56.805Z,74.91
2022-09-07T09:05:56.862Z,74.71
2022-09-07T09:06:56.945Z,74.81
2022-09-07T09:07:56.739Z,74.81
2022-09-07T09:08:56.736Z,74.18
2022-09-07T09:09:56.745Z,74.68
2022-09-07T09:10:56.730Z,73.68
2022-09-07T09:11:56.756Z,73.68
2022-09-07T09:12:56.678Z,74.48
2022-09-07T09:13:56.687Z,74.18
2022-09-07T09:14:56.742Z,73.78
2022-09-07T09:15:56.729Z,73.48
2022-09-07T09:16:56.639Z,72.98
2022-09-07T09:17:57.856Z,72.28
2022-09-07T09:18:56.697Z,72.08
2022-09-07T09:19:56.636Z,71.48
2022-09-07T09:20:56.604Z,71.59
2022-09-07T09:21:56.622Z,71.39
2022-09-07T09:22:56.621Z,71.89
2022-09-07T09:23:56.625Z,71.55
2022-09-07T09:24:56.556Z,71.65
2022-09-07T09:25:56.549Z,71.25
2022-09-07T09:26:56.655Z,70.72
2022-09-07T09:27:56.548Z,70.12
2022-09-07T09:28:56.523Z,70.32
2022-09-07T09:29:56.512Z,70.42
2022-09-07T09:30:56.528Z,69.69
2022-09-07T09:31:56.566Z,69.39
2022-09-07T09:32:56.510Z,69.20
2022-09-07T09:33:56.488Z,68.66
2022-09-07T09:34:57.293Z,68.37
2022-09-07T09:35:56.465Z,68.07
2022-09-07T09:36:56.480Z,68.13
2022-09-07T09:37:56.577Z,67.83
2022-09-07T09:38:56.524Z,67.74
2022-09-07T09:39:59.249Z,67.63
2022-09-07T09:40:56.422Z,67.93
2022-09-07T09:41:56.399Z,67.40
2022-09-07T09:42:56.391Z,66.11
2022-09-07T09:43:56.376Z,66.94
2022-09-07T09:44:56.370Z,67.74
2022-09-07T09:46:12.457Z,67.44
2022-09-07T09:47:56.392Z,67.74
2022-09-07T09:48:56.344Z,67.74
2022-09-07T09:49:56.339Z,67.54
2022-09-07T09:52:56.313Z,67.83
2022-09-07T09:53:56.309Z,67.86
2022-09-07T09:55:03.313Z,68.76
2022-09-07T09:55:56.284Z,69.26
2022-09-07T09:56:56.254Z,69.09
2022-09-07T09:59:58.381Z,70.52
2022-09-07T10:03:58.413Z,69.16
2022-09-07T10:04:56.154Z,68.76
2022-09-07T10:05:56.225Z,68.46
2022-09-07T10:06:56.164Z,68.33
2022-09-07T10:07:56.133Z,68.13
2022-09-07T10:08:56.150Z,67.44
2022-09-07T10:09:56.104Z,66.81
2022-09-07T10:10:56.129Z,66.71
2022-09-07T10:12:11.370Z,67.04
2022-09-07T10:12:56.084Z,67.33
2022-09-07T10:13:56.075Z,67.54
2022-09-07T10:14:56.125Z,67.74
2022-09-07T10:15:56.103Z,68.04
2022-09-07T10:16:56.048Z,67.93
2022-09-07T10:17:56.031Z,67.97
2022-09-07T10:18:56.022Z,67.54
2022-09-07T10:19:56.033Z,67.44
2022-09-07T10:20:56.007Z,67.00
2022-09-07T10:21:56.034Z,66.81
2022-09-07T10:22:56.068Z,66.71
2022-09-07T10:23:55.983Z,66.91
2022-09-07T10:24:56.052Z,66.71
2022-09-07T10:25:55.949Z,66.21
2022-09-07T10:26:55.983Z,66.01
2022-09-07T10:27:56.300Z,66.21
2022-09-07T10:29:11.597Z,66.21
2022-09-07T10:29:55.916Z,66.61
2022-09-07T10:30:56.069Z,66.81
2022-09-07T10:31:55.907Z,66.81
2022-09-07T10:32:55.891Z,66.64
2022-09-07T10:34:55.889Z,67.24
2022-09-07T10:35:55.863Z,67.33
2022-09-07T10:36:55.833Z,67.63
2022-09-07T10:37:56.448Z,67.54
2022-09-07T10:38:55.863Z,67.54
2022-09-07T10:40:00.119Z,67.44
2022-09-07T10:40:55.843Z,66.94
2022-09-07T10:41:55.829Z,66.31
2022-09-07T10:43:55.796Z,65.78
2022-09-07T10:44:55.834Z,65.06
2022-09-07T10:45:55.915Z,64.56
2022-09-07T10:46:57.329Z,64.16
2022-09-07T10:47:55.729Z,63.96
2022-09-07T10:48:55.726Z,63.96
2022-09-07T10:50:55.743Z,63.86
2022-09-07T10:51:55.783Z,64.06
2022-09-07T10:52:55.888Z,64.06
2022-09-07T10:54:55.833Z,64.79
2022-09-07T10:55:55.666Z,64.86
2022-09-07T10:56:55.671Z,64.56
2022-09-07T10:57:55.686Z,64.66
2022-09-07T10:59:03.412Z,64.13
2022-09-07T11:00:11.294Z,64.03
2022-09-07T11:00:55.692Z,64.10
2022-09-07T11:01:55.676Z,63.21
2022-09-07T11:03:55.740Z,61.99
2022-09-07T11:04:55.578Z,61.69
2022-09-07T11:05:55.600Z,60.86
2022-09-07T11:06:56.474Z,60.86
2022-09-07T11:07:55.564Z,61.07
2022-09-07T11:09:55.511Z,61.07
2022-09-07T11:10:55.517Z,61.16
2022-09-07T11:12:03.792Z,61.36
2022-09-07T11:12:55.530Z,61.16
2022-09-07T11:14:11.826Z,60.47
2022-09-07T11:14:55.474Z,59.18
2022-09-07T11:15:55.494Z,59.08
2022-09-07T11:16:55.512Z,59.05
2022-09-07T11:17:55.436Z,58.56
2022-09-07T11:19:34.995Z,58.65
2022-09-07T11:19:55.466Z,58.56
2022-09-07T11:20:55.586Z,58.06
2022-09-07T11:21:56.759Z,58.16
2022-09-07T11:22:55.454Z,58.06
2022-09-07T11:23:55.385Z,57.97
2022-09-07T11:25:55.351Z,57.07
2022-09-07T11:26:55.352Z,57.27
2022-09-07T11:27:55.352Z,57.46
2022-09-07T11:29:55.322Z,58.09
2022-09-07T11:30:59.686Z,58.98
2022-09-07T11:31:55.305Z,58.48
2022-09-07T11:32:55.314Z,58.39
2022-09-07T11:34:25.394Z,58.78
2022-09-07T11:34:55.309Z,58.88
2022-09-07T11:35:55.310Z,59.18
2022-09-07T11:36:55.254Z,58.61
2022-09-07T11:37:55.303Z,58.02
2022-09-07T11:38:55.305Z,58.12
2022-09-07T11:39:55.364Z,58.32
2022-09-07T11:40:55.232Z,59.01
2022-09-07T11:41:55.235Z,58.72
2022-09-07T11:42:55.182Z,58.94
2022-09-07T11:43:55.199Z,59.14
2022-09-07T11:44:55.219Z,58.94
2022-09-07T11:45:55.236Z,59.34
2022-09-07T11:46:55.153Z,59.34
2022-09-07T11:47:55.123Z,59.34
2022-09-07T11:48:55.181Z,59.34
2022-09-07T11:49:59.195Z,59.23
2022-09-07T11:50:55.146Z,59.23
2022-09-07T11:51:55.110Z,59.44
2022-09-07T11:52:55.078Z,58.81
2022-09-07T11:53:55.125Z,58.81
2022-09-07T11:54:55.107Z,58.32
2022-09-07T11:55:56.858Z,58.19
2022-09-07T11:56:55.079Z,57.99
2022-09-07T11:57:55.881Z,58.19
2022-09-07T11:58:55.077Z,58.06
2022-09-07T11:59:55.017Z,58.36
2022-09-07T12:00:55.100Z,58.06
2022-09-07T12:01:55.000Z,58.23
2022-09-07T12:02:59.709Z,57.14
2022-09-07T12:03:55.108Z,56.25
2022-09-07T12:04:56.522Z,55.66
2022-09-07T12:05:54.959Z,55.46
2022-09-07T12:06:55.000Z,55.26
2022-09-07T12:07:54.928Z,53.95
2022-09-07T12:08:54.954Z,53.33
2022-09-07T12:09:54.925Z,52.83
2022-09-07T12:10:54.912Z,52.81
2022-09-07T12:11:54.905Z,52.61
2022-09-07T12:12:54.882Z,51.82
2022-09-07T12:13:54.899Z,51.52
2022-09-07T12:14:54.900Z,52.12
2022-09-07T12:15:54.948Z,52.41
2022-09-07T12:16:54.870Z,53.00
2022-09-07T12:17:54.869Z,53.30
2022-09-07T12:18:54.845Z,53.30
2022-09-07T12:19:54.828Z,53.03
2022-09-07T12:20:54.817Z,52.91
2022-09-07T12:21:54.881Z,52.93
2022-09-07T12:22:54.910Z,51.72
2022-09-07T12:23:54.789Z,50.93
2022-09-07T12:24:54.765Z,50.63
2022-09-07T12:25:54.755Z,48.85
2022-09-07T12:26:54.750Z,48.43
2022-09-07T12:27:54.758Z,49.44
2022-09-07T12:28:54.772Z,50.41
2022-09-07T12:29:54.726Z,51.62
2022-09-07T12:30:54.822Z,52.22
2022-09-07T12:32:00.682Z,52.41
2022-09-07T12:32:56.038Z,52.51
2022-09-07T12:33:54.695Z,52.29
2022-09-07T12:34:54.686Z,51.50
2022-09-07T12:35:54.666Z,51.40
2022-09-07T12:36:54.696Z,51.89
2022-09-07T12:37:54.663Z,51.30
2022-09-07T12:38:54.657Z,50.90
2022-09-07T12:39:54.749Z,51.00
2022-09-07T12:40:54.628Z,50.53
2022-09-07T12:42:54.635Z,50.95
2022-09-07T12:43:54.628Z,50.46
2022-09-07T12:44:54.599Z,49.47
2022-09-07T12:45:54.627Z,50.68
2022-09-07T12:46:54.597Z,51.57
2022-09-07T12:47:54.601Z,51.89
2022-09-07T12:48:54.669Z,51.87
2022-09-07T12:49:54.526Z,52.07
2022-09-07T12:50:54.566Z,51.77
2022-09-07T12:52:09.229Z,50.51
2022-09-07T12:52:54.522Z,50.13
2022-09-07T12:53:57.776Z,50.73
2022-09-07T12:55:23.463Z,51.12
2022-09-07T12:57:54.456Z,52.94
2022-09-07T12:58:54.449Z,52.96
2022-09-07T12:59:55.134Z,53.66
2022-09-07T13:00:54.428Z,54.17
2022-09-07T13:01:54.495Z,54.57
2022-09-07T13:02:54.534Z,55.10
2022-09-07T13:03:54.472Z,55.40
2022-09-07T13:04:54.384Z,54.90
2022-09-07T13:05:54.459Z,55.40
2022-09-07T13:07:02.291Z,55.79
2022-09-07T13:08:01.526Z,55.00
2022-09-07T13:08:54.364Z,54.80
2022-09-07T13:09:54.345Z,54.80
2022-09-07T13:10:54.327Z,54.57
2022-09-07T13:11:54.325Z,53.88
2022-09-07T13:12:56.822Z,54.05
2022-09-07T13:14:03.919Z,53.56
2022-09-07T13:14:54.303Z,53.53
2022-09-07T13:15:55.594Z,53.33
2022-09-07T13:17:55.060Z,53.31
2022-09-07T13:18:55.008Z,52.71
2022-09-07T13:19:54.252Z,52.22
2022-09-07T13:20:54.258Z,52.02
2022-09-07T13:21:54.217Z,51.79
2022-09-07T13:22:54.215Z,52.09
2022-09-07T13:23:54.198Z,51.40
2022-09-07T13:24:58.833Z,51.40
2022-09-07T13:25:54.219Z,51.20
2022-09-07T13:26:54.194Z,50.81
2022-09-07T13:27:54.190Z,50.90
2022-09-07T13:28:54.978Z,50.41
2022-09-07T13:29:55.112Z,49.91
2022-09-07T13:30:54.209Z,49.91
2022-09-07T13:31:54.859Z,49.81
2022-09-07T13:33:09.467Z,50.01
2022-09-07T13:33:55.839Z,50.11
2022-09-07T13:34:54.113Z,50.11
2022-09-07T13:35:54.113Z,50.11
2022-09-07T13:36:54.088Z,49.81
2022-09-07T13:37:54.096Z,49.71